Cavan, Ireland
Current Conditions -  °F | °C
As of 9:30 AM on Wednesday 22 Oct 2014 (Local Time) from EISG Reporting Station
Overcast Overcast  
Wind Chill: 52°   Ceiling: 2300
Heat Index: 52°   Visibility: 4mi
Dew Point: 48°   Wind: 10mph
Humidity: 88%   Direction: 220°SW
Pressure: 30.15"   Gusts: NA
Location:  54°N, 7.37°W
Report Text: EISG 220930Z 22009KT 170V240 6000 BKN023 OVC034 11/09 Q1021
Loading
Personal Weather Stations






























Interactive Weather Map New forecast layout! Learn more

10-Day Weather Forecast

Advertisements
Track Severe Weather on mobile